Terminal Aerodrome Forecast
Issued by NWS

Home | Current Version | Previous Version | Text Only | Print | Product List | Glossary On
Versions: 1 2 3 4 5 6 7 8 9 10 11 12 13
008
FTUS43 KLSX 042327
TAFUIN
TAF
KUIN 042327Z 0500/0524 22009KT P6SM SCT120
     FM050600 29006KT P6SM SCT250
     FM051600 VRB03KT P6SM BKN120=

USA.gov is the U.S. government's official web portal to all federal, state and local government web resources and services.